createdAt,value
2022-11-20T00:01:15.388Z,18.33
2022-11-20T00:03:42.568Z,17.42
2022-11-20T00:06:12.376Z,17.88
2022-11-20T00:08:39.238Z,18.65
2022-11-20T00:11:16.815Z,17.50
2022-11-20T00:13:50.498Z,17.52
2022-11-20T00:16:20.118Z,18.75
2022-11-20T00:18:47.394Z,18.27
2022-11-20T00:21:17.479Z,18.02
2022-11-20T00:23:44.357Z,18.05
2022-11-20T00:26:13.695Z,18.23
2022-11-20T00:28:40.809Z,18.17
2022-11-20T00:31:10.408Z,16.90
2022-11-20T00:33:37.125Z,18.23
2022-11-20T00:36:06.744Z,17.63
2022-11-20T00:38:33.965Z,17.17
2022-11-20T00:41:02.456Z,17.33
2022-11-20T00:43:29.316Z,17.58
2022-11-20T00:46:04.409Z,17.48
2022-11-20T00:48:31.513Z,19.13
2022-11-20T00:50:58.806Z,17.48
2022-11-20T00:53:25.968Z,17.60
2022-11-20T00:56:04.270Z,17.48
2022-11-20T00:58:36.422Z,17.63
2022-11-20T01:01:09.055Z,17.55
2022-11-20T01:03:37.752Z,17.58
2022-11-20T01:06:10.665Z,18.08
2022-11-20T01:08:38.045Z,17.30
2022-11-20T01:11:10.502Z,17.90
2022-11-20T01:13:38.716Z,19.10
2022-11-20T01:16:05.395Z,17.55
2022-11-20T01:18:32.779Z,18.33
2022-11-20T01:21:08.331Z,19.08
2022-11-20T01:23:36.481Z,19.17
2022-11-20T01:26:05.413Z,18.75
2022-11-20T01:28:32.406Z,18.38
2022-11-20T01:30:59.670Z,19.42
2022-11-20T01:33:26.747Z,20.33
2022-11-20T01:35:53.847Z,19.15
2022-11-20T01:38:21.465Z,19.55
2022-11-20T01:40:55.448Z,18.75
2022-11-20T01:43:22.363Z,19.55
2022-11-20T01:45:58.165Z,19.92
2022-11-20T01:48:29.384Z,20.73
2022-11-20T01:50:56.738Z,20.17
2022-11-20T01:53:29.094Z,20.65
2022-11-20T01:55:59.201Z,19.75
2022-11-20T01:58:31.270Z,21.10
2022-11-20T02:00:57.923Z,19.55
2022-11-20T02:03:24.974Z,21.58
2022-11-20T02:05:58.907Z,20.17
2022-11-20T02:08:25.550Z,20.65
2022-11-20T02:10:52.129Z,19.67
2022-11-20T02:13:37.333Z,21.05
2022-11-20T02:16:04.903Z,21.40
2022-11-20T02:18:31.840Z,21.27
2022-11-20T02:21:21.558Z,21.10
2022-11-20T02:24:10.219Z,21.45
2022-11-20T02:26:50.609Z,20.10
2022-11-20T02:29:24.214Z,21.33
2022-11-20T02:31:51.476Z,20.25
2022-11-20T02:34:18.001Z,20.15
2022-11-20T02:36:46.072Z,20.90
2022-11-20T02:39:14.343Z,19.85
2022-11-20T02:41:40.966Z,20.08
2022-11-20T02:44:07.611Z,20.17
2022-11-20T02:46:34.681Z,21.02
2022-11-20T02:49:03.473Z,20.55
2022-11-20T02:51:30.404Z,20.20
2022-11-20T02:53:57.066Z,20.08
2022-11-20T02:56:24.116Z,19.63
2022-11-20T02:58:50.963Z,21.38
2022-11-20T03:01:17.626Z,20.52
2022-11-20T03:03:44.245Z,20.08
2022-11-20T03:06:10.809Z,20.67
2022-11-20T03:08:37.372Z,19.40
2022-11-20T03:11:08.279Z,20.55
2022-11-20T03:13:35.450Z,20.92
2022-11-20T03:16:13.982Z,19.88
2022-11-20T03:18:41.730Z,20.83
2022-11-20T03:21:09.031Z,21.10
2022-11-20T03:23:36.371Z,20.70
2022-11-20T03:26:29.367Z,21.45
2022-11-20T03:28:58.409Z,20.95
2022-11-20T03:31:27.267Z,21.10
2022-11-20T03:33:54.242Z,21.30
2022-11-20T03:36:21.932Z,23.17
2022-11-20T03:38:49.331Z,21.67
2022-11-20T03:41:19.207Z,22.50
2022-11-20T03:43:53.358Z,22.25
2022-11-20T03:46:20.782Z,23.08
2022-11-20T03:48:51.553Z,22.55
2022-11-20T03:51:22.783Z,21.92
2022-11-20T03:53:52.245Z,23.30
2022-11-20T03:56:21.384Z,21.52
2022-11-20T03:58:48.007Z,22.48
2022-11-20T04:01:17.538Z,23.35
2022-11-20T04:03:45.296Z,24.20
2022-11-20T04:06:20.560Z,23.50
2022-11-20T04:08:52.367Z,22.50
2022-11-20T04:11:27.884Z,22.30
2022-11-20T04:14:02.711Z,22.48
2022-11-20T04:16:37.203Z,22.77
2022-11-20T04:19:07.169Z,22.10
2022-11-20T04:21:34.058Z,22.02
2022-11-20T04:24:00.693Z,21.27
2022-11-20T04:26:28.927Z,22.13
2022-11-20T04:28:56.058Z,20.20
2022-11-20T04:31:29.154Z,22.70
2022-11-20T04:33:55.845Z,22.95
2022-11-20T04:36:24.745Z,22.48
2022-11-20T04:38:56.868Z,22.48
2022-11-20T04:41:29.057Z,21.80
2022-11-20T04:44:00.734Z,22.35
2022-11-20T04:46:28.234Z,22.13
2022-11-20T04:48:55.519Z,21.33
2022-11-20T04:51:22.646Z,20.98
2022-11-20T04:53:49.302Z,21.88
2022-11-20T04:56:16.230Z,21.80
2022-11-20T04:58:43.117Z,21.88
2022-11-20T05:01:15.448Z,22.20
2022-11-20T05:03:43.154Z,20.83
2022-11-20T05:06:11.785Z,21.45
2022-11-20T05:08:38.422Z,20.42
2022-11-20T05:11:07.551Z,20.83
2022-11-20T05:13:34.153Z,22.15
2022-11-20T05:16:13.152Z,20.23
2022-11-20T05:18:41.107Z,20.48
2022-11-20T05:21:09.248Z,22.67
2022-11-20T05:23:36.900Z,21.75
2022-11-20T05:26:04.639Z,21.63
2022-11-20T05:28:31.922Z,20.73
2022-11-20T05:31:09.052Z,21.45
2022-11-20T05:33:36.566Z,20.02
2022-11-20T05:36:06.295Z,21.90
2022-11-20T05:38:33.192Z,21.80
2022-11-20T05:41:17.149Z,20.73
2022-11-20T05:43:45.811Z,21.05
2022-11-20T05:46:15.101Z,20.65
2022-11-20T05:48:43.530Z,20.48
2022-11-20T05:51:13.606Z,20.10
2022-11-20T05:53:43.851Z,19.85
2022-11-20T05:56:17.574Z,19.42
2022-11-20T05:58:44.726Z,20.35
2022-11-20T06:01:14.446Z,20.80
2022-11-20T06:03:43.298Z,20.30
2022-11-20T06:06:09.818Z,20.80
2022-11-20T06:08:36.300Z,21.13
2022-11-20T06:11:07.633Z,21.58
2022-11-20T06:13:39.184Z,21.27
2022-11-20T06:16:08.595Z,22.35
2022-11-20T06:18:35.229Z,21.92
2022-11-20T06:21:07.883Z,23.38
2022-11-20T06:23:35.493Z,22.02
2022-11-20T06:26:07.328Z,22.42
2022-11-20T06:28:34.182Z,22.30
2022-11-20T06:31:00.695Z,23.27
2022-11-20T06:33:27.951Z,23.13
2022-11-20T06:36:00.881Z,23.10
2022-11-20T06:38:28.910Z,24.10
2022-11-20T06:40:55.524Z,24.02
2022-11-20T06:43:22.905Z,23.58
2022-11-20T06:45:57.390Z,23.33
2022-11-20T06:48:25.006Z,24.75
2022-11-20T06:50:51.707Z,24.13
2022-11-20T06:53:18.312Z,25.50
2022-11-20T06:55:46.417Z,25.55
2022-11-20T06:58:14.057Z,25.95
2022-11-20T07:00:40.871Z,27.40
2022-11-20T07:03:09.719Z,26.70
2022-11-20T07:05:36.833Z,25.95
2022-11-20T07:08:04.388Z,24.70
2022-11-20T07:10:31.360Z,26.27
2022-11-20T07:12:58.198Z,25.23
2022-11-20T07:15:26.479Z,25.95
2022-11-20T07:17:53.413Z,25.67
2022-11-20T07:20:20.190Z,26.00
2022-11-20T07:22:46.700Z,26.20
2022-11-20T07:25:13.312Z,26.45
2022-11-20T07:27:40.099Z,27.85
2022-11-20T07:30:07.794Z,26.38
2022-11-20T07:32:34.376Z,25.30
2022-11-20T07:35:00.949Z,26.98
2022-11-20T07:37:27.504Z,26.70
2022-11-20T07:39:54.020Z,25.85
2022-11-20T07:42:20.647Z,25.58
2022-11-20T07:44:47.179Z,25.98
2022-11-20T07:47:13.772Z,26.52
2022-11-20T07:49:40.420Z,27.00
2022-11-20T07:52:07.034Z,26.45
2022-11-20T07:54:33.556Z,27.15
2022-11-20T07:57:00.154Z,28.23
2022-11-20T07:59:26.727Z,27.70
2022-11-20T08:01:53.337Z,30.05
2022-11-20T08:04:19.935Z,29.52
2022-11-20T08:06:46.548Z,31.23
2022-11-20T08:09:13.218Z,29.70
2022-11-20T08:11:58.426Z,30.48
2022-11-20T08:14:25.046Z,29.73
2022-11-20T08:16:51.620Z,29.00
2022-11-20T08:19:19.332Z,30.80
2022-11-20T08:21:46.154Z,30.05
2022-11-20T08:24:13.100Z,30.40
2022-11-20T08:26:41.008Z,31.95
2022-11-20T08:29:13.131Z,30.63
2022-11-20T08:31:39.790Z,31.45
2022-11-20T08:34:09.225Z,32.17
2022-11-20T08:36:36.915Z,30.27
2022-11-20T08:39:04.373Z,31.20
2022-11-20T08:41:33.806Z,30.15
2022-11-20T08:44:02.868Z,30.73
2022-11-20T08:46:36.458Z,30.92
2022-11-20T08:49:03.488Z,32.03
2022-11-20T08:51:30.360Z,33.40
2022-11-20T08:53:57.230Z,31.77
2022-11-20T08:56:24.157Z,29.77
2022-11-20T08:59:20.179Z,30.75
2022-11-20T09:01:41.765Z,31.55
2022-11-20T09:04:08.337Z,31.75
2022-11-20T09:06:34.876Z,31.23
2022-11-20T09:09:06.368Z,30.65
2022-11-20T09:11:33.654Z,30.73
2022-11-20T09:14:01.073Z,31.00
2022-11-20T09:16:27.647Z,30.23
2022-11-20T09:19:13.516Z,31.05
2022-11-20T09:21:40.992Z,28.85
2022-11-20T09:24:07.737Z,28.85
2022-11-20T09:26:34.273Z,28.95
2022-11-20T09:29:00.836Z,31.30
2022-11-20T09:31:27.526Z,32.45
2022-11-20T09:33:54.382Z,30.08
2022-11-20T09:36:21.034Z,30.52
2022-11-20T09:38:48.936Z,31.30
2022-11-20T09:41:24.422Z,30.52
2022-11-20T09:44:17.225Z,29.40
2022-11-20T09:46:50.108Z,29.27
2022-11-20T09:49:37.867Z,29.33
2022-11-20T09:52:29.701Z,29.25
2022-11-20T09:54:56.330Z,30.15
2022-11-20T09:57:30.752Z,29.00
2022-11-20T10:00:01.837Z,28.02
2022-11-20T10:02:44.794Z,27.30
2022-11-20T10:05:40.721Z,26.38
2022-11-20T10:08:51.315Z,26.88
2022-11-20T10:11:39.525Z,27.73
2022-11-20T10:14:14.848Z,27.90
2022-11-20T10:16:53.360Z,27.92
2022-11-20T10:19:48.191Z,27.88
2022-11-20T10:22:26.678Z,29.20
2022-11-20T10:25:02.241Z,28.10
2022-11-20T10:27:47.238Z,30.30
2022-11-20T10:30:16.728Z,29.70
2022-11-20T10:32:59.541Z,29.63
2022-11-20T10:35:42.765Z,27.23
2022-11-20T10:38:38.481Z,27.60
2022-11-20T10:41:25.477Z,27.20
2022-11-20T10:44:03.666Z,28.80
2022-11-20T10:46:38.612Z,30.20
2022-11-20T10:49:12.559Z,29.60
2022-11-20T10:51:52.400Z,30.60
2022-11-20T10:54:28.483Z,29.33
2022-11-20T10:57:04.985Z,30.13
2022-11-20T11:00:10.746Z,29.95
2022-11-20T11:02:44.177Z,28.48
2022-11-20T11:05:30.874Z,28.70
2022-11-20T11:07:59.652Z,28.33
2022-11-20T11:10:53.949Z,29.30
2022-11-20T11:13:21.752Z,28.77
2022-11-20T11:15:48.779Z,29.83
2022-11-20T11:18:26.086Z,29.38
2022-11-20T11:20:53.501Z,29.60
2022-11-20T11:23:32.624Z,29.30
2022-11-20T11:26:01.271Z,30.10
2022-11-20T11:28:28.970Z,31.85
2022-11-20T11:30:56.827Z,29.95
2022-11-20T11:33:31.874Z,31.15
2022-11-20T11:36:01.801Z,29.65
2022-11-20T11:38:32.416Z,29.90
2022-11-20T11:40:59.461Z,29.17
2022-11-20T11:43:48.349Z,30.58
2022-11-20T11:46:34.735Z,29.80
2022-11-20T11:49:10.293Z,30.38
2022-11-20T11:52:14.896Z,30.83
2022-11-20T11:54:48.352Z,30.30
2022-11-20T11:57:35.025Z,30.17
2022-11-20T12:00:18.185Z,28.85
2022-11-20T12:02:48.859Z,30.20
2022-11-20T12:08:15.443Z,29.40
2022-11-20T12:10:57.118Z,29.83
2022-11-20T12:13:45.043Z,28.92
2022-11-20T12:16:17.197Z,27.15
2022-11-20T12:18:43.956Z,27.27
2022-11-20T12:21:23.128Z,26.83
2022-11-20T12:24:16.135Z,25.90
2022-11-20T12:26:54.806Z,24.48
2022-11-20T12:30:00.970Z,24.83
2022-11-20T12:32:51.581Z,23.15
2022-11-20T12:35:33.031Z,24.50
2022-11-20T12:38:43.523Z,24.30
2022-11-20T12:41:39.099Z,25.20
2022-11-20T12:45:00.660Z,25.08
2022-11-20T12:47:52.922Z,24.90
2022-11-20T12:51:00.257Z,25.52
2022-11-20T12:53:39.709Z,26.50
2022-11-20T12:56:51.309Z,23.85
2022-11-20T12:59:35.920Z,24.77
2022-11-20T13:02:39.782Z,24.52
2022-11-20T13:05:06.335Z,24.00
2022-11-20T13:07:36.315Z,25.17
2022-11-20T13:10:08.741Z,25.35
2022-11-20T13:12:47.706Z,27.52
2022-11-20T13:15:39.258Z,27.92
2022-11-20T13:18:11.633Z,27.13
2022-11-20T13:20:44.027Z,28.50
2022-11-20T13:23:10.954Z,27.80
2022-11-20T13:25:41.326Z,28.30
2022-11-20T13:28:11.064Z,27.13
2022-11-20T13:30:49.720Z,27.00
2022-11-20T13:33:45.804Z,28.10
2022-11-20T13:36:25.653Z,28.20
2022-11-20T13:38:54.399Z,28.57
2022-11-20T13:41:38.959Z,26.45
2022-11-20T13:44:11.991Z,24.23
2022-11-20T13:46:45.611Z,26.42
2022-11-20T13:49:27.007Z,24.23
2022-11-20T13:52:06.888Z,23.67
2022-11-20T13:54:39.140Z,23.80
2022-11-20T13:57:52.985Z,24.95
2022-11-20T14:00:25.641Z,23.63
2022-11-20T14:03:06.165Z,22.88
2022-11-20T14:05:37.257Z,24.77
2022-11-20T14:08:13.673Z,22.95
2022-11-20T14:10:40.583Z,23.38
2022-11-20T14:13:19.891Z,23.85
2022-11-20T14:15:46.652Z,23.08
2022-11-20T14:18:22.989Z,21.58
2022-11-20T14:20:49.946Z,23.05
2022-11-20T14:23:30.161Z,23.35
2022-11-20T14:25:57.152Z,22.38
2022-11-20T14:28:31.831Z,21.92
2022-11-20T14:30:59.188Z,21.02
2022-11-20T14:33:28.108Z,21.42
2022-11-20T14:35:56.911Z,21.95
2022-11-20T14:38:28.036Z,22.20
2022-11-20T14:40:54.662Z,21.58
2022-11-20T14:43:28.802Z,22.10
2022-11-20T14:46:04.410Z,21.60
2022-11-20T14:48:53.196Z,20.90
2022-11-20T14:51:35.805Z,21.10
2022-11-20T14:54:15.125Z,20.60
2022-11-20T14:56:42.326Z,20.58
2022-11-20T14:59:10.665Z,21.42
2022-11-20T15:01:38.395Z,20.48
2022-11-20T15:04:12.144Z,19.63
2022-11-20T15:06:51.506Z,21.63
2022-11-20T15:09:18.094Z,22.95
2022-11-20T15:12:02.460Z,21.02
2022-11-20T15:14:31.485Z,21.67
2022-11-20T15:16:58.185Z,22.00
2022-11-20T15:19:26.635Z,20.38
2022-11-20T15:21:53.916Z,20.80
2022-11-20T15:24:21.746Z,19.75
2022-11-20T15:26:48.873Z,19.92
2022-11-20T15:29:22.068Z,19.45
2022-11-20T15:31:48.828Z,18.33
2022-11-20T15:34:16.656Z,18.98
2022-11-20T15:36:44.750Z,19.58
2022-11-20T15:39:12.700Z,18.63
2022-11-20T15:41:39.784Z,19.15
2022-11-20T15:44:06.744Z,19.42
2022-11-20T15:46:39.574Z,18.63
2022-11-20T15:49:10.015Z,20.45
2022-11-20T15:51:39.587Z,19.80
2022-11-20T15:54:14.313Z,21.60
2022-11-20T15:56:41.024Z,19.23
2022-11-20T15:59:08.019Z,18.67
2022-11-20T16:01:35.199Z,17.13
2022-11-20T16:04:02.239Z,17.23
2022-11-20T16:06:28.860Z,17.25
2022-11-20T16:08:55.563Z,17.60
2022-11-20T16:11:22.331Z,17.73
2022-11-20T16:14:07.160Z,18.55
2022-11-20T16:16:38.688Z,18.42
2022-11-20T16:19:05.420Z,17.15
2022-11-20T16:21:32.619Z,17.90
2022-11-20T16:24:07.033Z,18.85
2022-11-20T16:26:34.272Z,18.63
2022-11-20T16:29:02.194Z,19.67
2022-11-20T16:31:29.238Z,18.38
2022-11-20T16:33:58.079Z,20.35
2022-11-20T16:36:26.624Z,20.58
2022-11-20T16:39:01.002Z,20.83
2022-11-20T16:41:30.706Z,21.52
2022-11-20T16:43:59.500Z,20.20
2022-11-20T16:46:28.255Z,20.95
2022-11-20T16:48:57.655Z,20.45
2022-11-20T16:51:25.346Z,20.15
2022-11-20T16:53:53.300Z,20.83
2022-11-20T16:56:21.935Z,23.55
2022-11-20T16:58:50.987Z,21.85
2022-11-20T17:01:21.409Z,21.15
2022-11-20T17:03:55.498Z,22.50
2022-11-20T17:06:26.870Z,20.52
2022-11-20T17:08:55.329Z,21.83
2022-11-20T17:11:22.207Z,21.27
2022-11-20T17:13:49.161Z,20.27
2022-11-20T17:16:21.273Z,21.30
2022-11-20T17:18:50.000Z,21.50
2022-11-20T17:21:18.496Z,20.15
2022-11-20T17:23:46.262Z,22.20
2022-11-20T17:26:19.813Z,21.13
2022-11-20T17:28:47.924Z,22.17
2022-11-20T17:31:17.447Z,21.67
2022-11-20T17:33:45.590Z,22.58
2022-11-20T17:36:15.265Z,21.75
2022-11-20T17:38:42.547Z,23.02
2022-11-20T17:41:11.575Z,21.77
2022-11-20T17:43:38.657Z,21.67
2022-11-20T17:46:06.957Z,21.60
2022-11-20T17:48:34.416Z,20.83
2022-11-20T17:51:02.565Z,20.15
2022-11-20T17:53:32.937Z,21.15
2022-11-20T17:56:17.968Z,20.35
2022-11-20T17:58:44.816Z,21.73
2022-11-20T18:01:11.754Z,20.35
2022-11-20T18:03:38.465Z,19.73
2022-11-20T18:06:10.648Z,19.40
2022-11-20T18:08:37.572Z,19.63
2022-11-20T18:11:15.740Z,18.88
2022-11-20T18:14:02.432Z,18.73
2022-11-20T18:16:31.541Z,19.80
2022-11-20T18:18:58.632Z,18.85
2022-11-20T18:21:27.215Z,18.58
2022-11-20T18:23:55.999Z,17.55
2022-11-20T18:26:23.630Z,17.50
2022-11-20T18:28:50.444Z,16.73
2022-11-20T18:31:17.456Z,15.98
2022-11-20T18:33:44.212Z,15.70
2022-11-20T18:36:15.432Z,15.52
2022-11-20T18:38:46.220Z,15.32
2022-11-20T18:41:33.590Z,15.80
2022-11-20T18:44:24.709Z,15.02
2022-11-20T18:46:51.363Z,14.68
2022-11-20T18:49:18.352Z,13.50
2022-11-20T18:51:44.918Z,14.73
2022-11-20T18:54:12.967Z,11.35
2022-11-20T18:56:39.981Z,11.80
2022-11-20T18:59:09.489Z,12.90
2022-11-20T19:01:36.890Z,11.85
2022-11-20T19:04:08.290Z,9.95
2022-11-20T19:06:36.820Z,10.18
2022-11-20T19:09:10.398Z,9.77
2022-11-20T19:11:37.956Z,8.95
2022-11-20T19:14:05.190Z,8.40
2022-11-20T19:16:31.775Z,8.00
2022-11-20T19:19:03.529Z,7.03
2022-11-20T19:21:30.905Z,6.53
2022-11-20T19:23:59.726Z,5.65
2022-11-20T19:26:26.875Z,5.47
2022-11-20T19:28:53.934Z,5.47
2022-11-20T19:31:24.845Z,6.07
2022-11-20T19:33:59.813Z,6.05
2022-11-20T19:36:43.202Z,5.07
2022-11-20T19:39:11.683Z,5.63
2022-11-20T19:41:39.663Z,6.10
2022-11-20T19:44:14.925Z,6.18
2022-11-20T19:46:42.072Z,7.22
2022-11-20T19:49:11.578Z,6.57
2022-11-20T19:51:43.462Z,7.30
2022-11-20T19:54:10.063Z,6.25
2022-11-20T19:56:36.985Z,5.75
2022-11-20T19:59:03.679Z,5.50
2022-11-20T20:01:31.547Z,5.40
2022-11-20T20:04:05.376Z,5.50
2022-11-20T20:06:35.000Z,5.05
2022-11-20T20:09:13.413Z,4.50
2022-11-20T20:11:41.099Z,3.47
2022-11-20T20:14:15.955Z,2.53
2022-11-20T20:16:43.069Z,3.00
2022-11-20T20:19:14.376Z,2.25
2022-11-20T20:21:41.517Z,2.63
2022-11-20T20:24:10.323Z,2.50
2022-11-20T20:26:37.475Z,2.83
2022-11-20T20:29:04.507Z,2.45
2022-11-20T20:31:33.927Z,2.15
2022-11-20T20:34:01.485Z,3.08
2022-11-20T20:36:28.129Z,3.60
2022-11-20T20:38:56.213Z,3.35
2022-11-20T20:41:25.367Z,3.22
2022-11-20T20:44:15.291Z,3.13
2022-11-20T20:46:42.188Z,3.38
2022-11-20T20:49:08.981Z,2.90
2022-11-20T20:51:36.066Z,2.70
2022-11-20T20:54:06.450Z,2.97
2022-11-20T20:56:36.528Z,3.50
2022-11-20T20:59:04.221Z,3.45
2022-11-20T21:01:31.073Z,3.47
2022-11-20T21:04:00.556Z,2.78
2022-11-20T21:06:27.186Z,3.60
2022-11-20T21:08:55.874Z,3.03
2022-11-20T21:11:22.428Z,3.05
2022-11-20T21:13:52.395Z,2.40
2022-11-20T21:16:22.277Z,2.13
2022-11-20T21:18:49.141Z,2.50
2022-11-20T21:21:35.732Z,3.75
2022-11-20T21:24:03.061Z,2.60
2022-11-20T21:26:29.697Z,2.67
2022-11-20T21:28:59.321Z,3.58
2022-11-20T21:31:26.796Z,2.55
2022-11-20T21:33:54.971Z,2.05
2022-11-20T21:36:24.062Z,2.00
2022-11-20T21:38:52.243Z,2.28
2022-11-20T21:41:18.825Z,2.38
2022-11-20T21:43:45.681Z,1.90
2022-11-20T21:46:14.549Z,2.10
2022-11-20T21:48:43.028Z,1.77
2022-11-20T21:51:11.936Z,1.60
2022-11-20T21:53:38.579Z,1.73
2022-11-20T21:56:07.796Z,1.80
2022-11-20T21:58:35.719Z,1.60
2022-11-20T22:01:13.747Z,2.10
2022-11-20T22:03:41.226Z,2.13
2022-11-20T22:06:09.379Z,1.85
2022-11-20T22:08:37.163Z,1.42
2022-11-20T22:11:15.555Z,1.35
2022-11-20T22:14:00.779Z,1.60
2022-11-20T22:16:27.593Z,1.70
2022-11-20T22:18:55.881Z,1.60
2022-11-20T22:21:25.098Z,1.60
2022-11-20T22:23:52.330Z,1.58
2022-11-20T22:26:21.582Z,1.35
2022-11-20T22:28:51.012Z,1.45
2022-11-20T22:31:18.702Z,1.80
2022-11-20T22:33:45.542Z,1.30
2022-11-20T22:36:14.372Z,1.45
2022-11-20T22:38:41.569Z,1.80
2022-11-20T22:41:10.939Z,1.50
2022-11-20T22:43:38.331Z,1.30
2022-11-20T22:46:09.006Z,2.00
2022-11-20T22:51:16.868Z,1.50
2022-11-20T22:53:44.236Z,1.80
2022-11-20T22:56:14.981Z,1.80
2022-11-20T23:01:15.058Z,1.50
2022-11-20T23:03:44.144Z,1.80
2022-11-20T23:06:11.217Z,1.90
2022-11-20T23:08:38.817Z,1.50
2022-11-20T23:11:13.796Z,1.63
2022-11-20T23:13:41.158Z,1.65
2022-11-20T23:16:13.809Z,2.13
2022-11-20T23:18:41.407Z,1.40
2022-11-20T23:21:16.373Z,1.85
2022-11-20T23:23:44.137Z,1.90
2022-11-20T23:26:12.564Z,2.15
2022-11-20T23:28:40.509Z,2.38
2022-11-20T23:31:07.935Z,1.88
2022-11-20T23:33:39.414Z,1.40
2022-11-20T23:36:06.731Z,1.75
2022-11-20T23:38:34.123Z,1.60
2022-11-20T23:41:01.109Z,2.08
2022-11-20T23:43:28.560Z,1.60
2022-11-20T23:45:59.874Z,1.30
2022-11-20T23:48:29.181Z,1.48
2022-11-20T23:50:56.008Z,1.40
2022-11-20T23:53:23.091Z,1.55
2022-11-20T23:55:51.548Z,1.42
2022-11-20T23:58:18.362Z,1.48
